Startpagina
METAR-TAF:

METAR-TAF

Vliegvelden :

Ranchi, India

breedte: 23-18-51N, lengte: 85-19-18E, hoogte: 646 m

Actueel weer

Dit bericht is 23 minuten geleden gemaakt, om 13:00 UTC
Wind 3 kt uit het zuiden
Temperatuur 26°C
Vochtigheid 100%
Druk 999 hPa
Zicht: 1500 m
Verspreide wolken op 1200 ft
Weinig wolken op 3000 ft, Cumulonimbus.
Gebroken wolken op 10000 ft
onweer, lichte regen

METAR: VERC 171300Z 19003KT 1500 -TSRA SCT012 FEW030CB BKN100 26/26 Q0999 NOSIG

Tijdstip: 18:53 (13:23 UTC)


TAF: ontbreekt

Waarnemingen en weersverwachtingen van meer dan 4000 vliegvelden (METAR en TAF).

De beschikbare stations zijn de gele en rode punten op de kaart.

Ga met uw muis naar het station om de naam te zien.

Klik dan om waarnemingen en weersverwachtingen te zien.

kaart wijzigen: klik op de groene knoppen met een zwart kruis om in te zoomen, op de groene knop met een streepje om uit te zoomen of op de groene pijlen voor aangrenzende kaarten.


METAR-TAF: